Time;durP1;ratioP1;P1;durP2;ratioP2;P2;SDS_P1;SDS_P2;PMS_P1;PMS_P2;Temp;Humidity;BMP_temperature;BMP_pressure;BME280_temperature;BME280_humidity;BME280_pressure;Samples;Min_cycle;Max_cycle;Signal;HPM_P1;HPM_P2
2022/04/21 00:00:57;;;;;;;4.63;2.00;;;7.80;99.90;;;-146.41;100.00;57768.22;4906179;29;20072;-72
2022/04/21 00:03:24;;;;;;;5.50;1.83;;;7.80;99.90;;;-146.41;100.00;57768.22;4907273;29;20041;-73
2022/04/21 00:05:52;;;;;;;3.13;1.80;;;7.60;99.90;;;-146.41;100.00;57768.22;4904359;29;20423;-70
2022/04/21 00:08:20;;;;;;;4.97;1.90;;;7.60;99.90;;;-146.41;100.00;57768.22;4907690;29;20479;-72
2022/04/21 00:10:47;;;;;;;8.85;2.15;;;7.50;99.90;;;-146.41;100.00;57768.22;4910242;29;20055;-72
2022/04/21 00:13:14;;;;;;;6.70;2.05;;;7.60;99.90;;;-146.41;100.00;57768.22;4905051;29;20087;-71
2022/04/21 00:15:41;;;;;;;3.70;1.92;;;7.60;99.90;;;-146.41;100.00;57768.22;4904856;29;20077;-72
2022/04/21 00:18:08;;;;;;;5.25;2.00;;;7.60;99.90;;;-146.41;100.00;57768.22;4907543;29;20095;-72
2022/04/21 00:20:36;;;;;;;4.75;1.85;;;7.60;99.90;;;-146.41;100.00;57768.22;4906485;29;20068;-73
2022/04/21 00:25:50;;;;;;;5.25;2.17;;;7.50;99.90;;;-146.41;100.00;57768.22;4907254;29;20100;-73
2022/04/21 00:28:17;;;;;;;7.13;2.40;;;7.50;99.90;;;-146.41;100.00;57768.22;4905738;29;20058;-72
2022/04/21 00:30:44;;;;;;;6.70;2.95;;;7.50;99.90;;;-146.41;100.00;57768.22;4905054;29;20056;-72
2022/04/21 00:33:11;;;;;;;4.22;2.05;;;7.40;99.90;;;-146.41;100.00;57768.22;4905274;29;20064;-72
2022/04/21 00:35:38;;;;;;;5.07;1.80;;;7.30;99.90;;;-146.41;100.00;57768.22;4906412;29;20143;-71
2022/04/21 00:38:05;;;;;;;16.58;1.90;;;7.30;99.90;;;-146.41;100.00;57768.22;4906958;29;20179;-73
2022/04/21 00:40:32;;;;;;;6.95;2.05;;;7.30;99.90;;;-146.41;100.00;57768.22;4905272;29;20087;-73
2022/04/21 00:43:01;;;;;;;5.18;1.98;;;7.30;99.90;;;-146.41;100.00;57768.22;4907954;29;20048;-71
2022/04/21 00:45:29;;;;;;;5.25;1.92;;;7.30;99.90;;;-146.41;100.00;57768.22;4890233;29;20549;-71
2022/04/21 00:47:58;;;;;;;5.82;2.15;;;7.30;99.90;;;-146.41;100.00;57768.22;4886616;29;20060;-72
2022/04/21 00:50:31;;;;;;;6.72;2.33;;;7.20;99.90;;;-146.41;100.00;57768.22;4902579;29;20063;-72
2022/04/21 00:52:58;;;;;;;6.03;2.22;;;7.20;99.90;;;-146.41;100.00;57768.22;4905012;29;20135;-72
2022/04/21 00:55:26;;;;;;;3.28;1.90;;;7.10;99.90;;;-146.41;100.00;57768.22;4902350;29;20085;-72
2022/04/21 00:57:55;;;;;;;5.72;2.08;;;7.10;99.90;;;-146.41;100.00;57768.22;4905360;29;20140;-72
2022/04/21 01:00:22;;;;;;;5.28;2.35;;;6.90;99.90;;;-146.41;100.00;57768.22;4906929;29;20059;-71
2022/04/21 01:02:50;;;;;;;6.13;2.35;;;6.80;99.90;;;-146.41;100.00;57768.22;4908295;29;20048;-72
2022/04/21 01:05:29;;;;;;;7.60;2.65;;;6.80;99.90;;;-146.41;100.00;57768.22;4903377;29;20132;-72
2022/04/21 01:07:59;;;;;;;5.68;2.30;;;6.80;99.90;;;-146.41;100.00;57768.22;4905814;29;20070;-73
2022/04/21 01:10:32;;;;;;;6.63;2.42;;;6.70;99.90;;;-146.41;100.00;57768.22;4904287;29;20076;-72
2022/04/21 01:12:59;;;;;;;7.10;1.90;;;6.60;99.90;;;-146.41;100.00;57768.22;4909015;29;20092;-73
2022/04/21 01:15:27;;;;;;;6.55;2.58;;;6.70;99.90;;;-146.41;100.00;57768.22;4901867;29;20143;-71
2022/04/21 01:17:55;;;;;;;6.13;2.97;;;6.70;99.90;;;-146.41;100.00;57768.22;4906620;29;20487;-72
2022/04/21 01:20:24;;;;;;;5.88;2.50;;;6.70;99.90;;;-146.41;100.00;57768.22;4907894;29;20118;-71
2022/04/21 01:22:52;;;;;;;4.78;2.22;;;6.80;99.90;;;-146.41;100.00;57768.22;4906780;29;20131;-71
2022/04/21 01:25:20;;;;;;;4.07;2.58;;;6.80;99.90;;;-146.41;100.00;57768.22;4903540;29;20059;-73
2022/04/21 01:27:52;;;;;;;4.05;2.25;;;6.70;99.90;;;-146.41;100.00;57768.22;4904825;29;20080;-73
2022/04/21 01:30:20;;;;;;;6.05;2.80;;;6.70;99.90;;;-146.41;100.00;57768.22;4908073;29;20079;-73
2022/04/21 01:32:49;;;;;;;5.05;2.40;;;6.60;99.90;;;-146.41;100.00;57768.22;4902371;29;20180;-73
2022/04/21 01:35:17;;;;;;;5.95;2.80;;;6.50;99.90;;;-146.41;100.00;57768.22;4901691;29;20064;-73
2022/04/21 01:43:16;;;;;;;4.82;2.38;;;6.50;99.90;;;-146.41;100.00;57768.22;4895007;29;20091;-73
2022/04/21 01:45:44;;;;;;;7.60;2.65;;;6.40;99.90;;;-146.41;100.00;57768.22;4905391;29;20048;-73
2022/04/21 01:48:11;;;;;;;6.15;3.05;;;6.30;99.90;;;-146.41;100.00;57768.22;4907681;29;20063;-74
2022/04/21 01:50:38;;;;;;;5.93;3.10;;;6.30;99.90;;;-146.41;100.00;57768.22;4903370;29;20493;-73
2022/04/21 01:53:06;;;;;;;4.90;2.75;;;6.30;99.90;;;-146.41;100.00;57768.22;4907505;29;20090;-74
2022/04/21 01:55:33;;;;;;;7.43;3.13;;;6.30;99.90;;;-146.41;100.00;57768.22;4909909;29;20070;-73
2022/04/21 01:58:03;;;;;;;4.78;2.95;;;6.20;99.90;;;-146.41;100.00;57768.22;4905916;29;20175;-73
2022/04/21 02:00:30;;;;;;;6.28;3.30;;;6.20;99.90;;;-146.41;100.00;57768.22;4906323;29;20044;-73
2022/04/21 02:02:57;;;;;;;5.78;3.22;;;6.10;99.90;;;-146.41;100.00;57768.22;4906394;29;20095;-73
2022/04/21 02:05:24;;;;;;;7.43;3.50;;;6.20;99.90;;;-146.41;100.00;57768.22;4900097;29;20412;-74
2022/04/21 02:07:52;;;;;;;8.32;3.35;;;6.20;99.90;;;-146.41;100.00;57768.22;4904532;29;20551;-73
2022/04/21 02:10:21;;;;;;;6.13;3.28;;;6.10;99.90;;;-146.41;100.00;57768.22;4896770;29;20080;-73
2022/04/21 02:12:49;;;;;;;8.35;3.83;;;6.10;99.90;;;-146.41;100.00;57768.22;4893650;29;20084;-73
2022/04/21 02:15:17;;;;;;;4.63;2.90;;;6.00;99.90;;;-146.41;100.00;57768.22;4904431;29;20083;-73
2022/04/21 02:17:45;;;;;;;7.35;3.08;;;6.00;99.90;;;-146.41;100.00;57768.22;4903251;29;20088;-73
2022/04/21 02:20:15;;;;;;;7.63;3.13;;;6.00;99.90;;;-146.41;100.00;57768.22;4901750;29;20147;-73
2022/04/21 02:22:46;;;;;;;6.97;3.03;;;5.90;99.90;;;-146.41;100.00;57768.22;4901889;29;20498;-73
2022/04/21 02:25:15;;;;;;;5.18;3.00;;;5.80;99.90;;;-146.41;100.00;57768.22;4896286;29;20426;-73
2022/04/21 02:27:47;;;;;;;10.35;3.25;;;5.80;99.90;;;-146.41;100.00;57768.22;4905616;29;20083;-74
2022/04/21 02:30:17;;;;;;;8.48;3.47;;;5.80;99.90;;;-146.41;100.00;57768.22;4904953;29;20047;-73
2022/04/21 02:32:44;;;;;;;9.55;4.28;;;5.70;99.90;;;-146.41;100.00;57768.22;4904672;29;20385;-73
2022/04/21 02:35:15;;;;;;;6.30;3.58;;;5.60;99.90;;;-146.41;100.00;57768.22;4892035;29;20083;-73
2022/04/21 02:37:45;;;;;;;5.05;3.50;;;5.60;99.90;;;-146.41;100.00;57768.22;4892976;29;20049;-73
2022/04/21 02:40:13;;;;;;;6.57;3.55;;;5.50;99.90;;;-146.41;100.00;57768.22;4888245;29;20228;-73
2022/04/21 02:42:41;;;;;;;8.05;4.07;;;5.50;99.90;;;-146.41;100.00;57768.22;4903445;29;20086;-73
2022/04/21 02:45:11;;;;;;;7.07;4.10;;;5.50;99.90;;;-146.41;100.00;57768.22;4896516;29;20131;-73
2022/04/21 02:47:44;;;;;;;8.32;3.70;;;5.60;99.90;;;-146.41;100.00;57768.22;4890047;29;20157;-73
2022/04/21 02:50:14;;;;;;;7.75;3.70;;;5.50;99.90;;;-146.41;100.00;57768.22;4890868;29;20056;-73
2022/04/21 02:52:43;;;;;;;5.05;3.20;;;5.30;99.90;;;-146.41;100.00;57768.22;4893618;29;20906;-72
2022/04/21 02:57:58;;;;;;;5.03;4.00;;;5.20;99.90;;;-146.41;100.00;57768.22;4896042;29;20093;-73
2022/04/21 03:00:26;;;;;;;6.88;3.80;;;5.10;99.90;;;-146.41;100.00;57768.22;4892784;29;20052;-72
2022/04/21 03:02:58;;;;;;;6.70;3.65;;;5.10;99.90;;;-146.41;100.00;57768.22;4906859;29;20419;-72
2022/04/21 03:05:25;;;;;;;7.43;3.65;;;4.90;99.90;;;-146.41;100.00;57768.22;4902789;29;20102;-73
2022/04/21 03:07:54;;;;;;;7.45;4.05;;;4.70;99.90;;;-146.41;100.00;57768.22;4904282;29;20103;-73
2022/04/21 03:10:21;;;;;;;7.15;4.22;;;4.70;99.90;;;-146.41;100.00;57768.22;4891485;29;20056;-73
2022/04/21 03:12:48;;;;;;;6.82;3.83;;;4.80;99.90;;;-146.41;100.00;57768.22;4893899;29;20118;-73
2022/04/21 03:15:15;;;;;;;9.43;4.40;;;4.80;99.90;;;-146.41;100.00;57768.22;4902455;29;20072;-72
2022/04/21 03:17:42;;;;;;;7.65;4.90;;;4.90;99.90;;;-146.41;100.00;57768.22;4906924;29;20113;-73
2022/04/21 03:24:18;;;;;;;12.90;5.32;;;4.80;99.90;;;-146.41;100.00;57768.22;4906869;29;20132;-73
2022/04/21 03:25:42;;;;;;;6.13;4.30;;;4.70;99.90;;;-146.41;100.00;57768.22;4906848;29;20124;-73
2022/04/21 03:28:09;;;;;;;7.65;4.10;;;4.60;99.90;;;-146.41;100.00;57768.22;4910535;29;20484;-74
2022/04/21 03:30:36;;;;;;;6.38;4.03;;;4.60;99.90;;;-146.41;100.00;57768.22;4910230;29;20087;-73
2022/04/21 03:33:04;;;;;;;8.27;3.58;;;4.50;99.90;;;-146.41;100.00;57768.22;4911982;29;20107;-72
2022/04/21 03:35:31;;;;;;;8.38;4.18;;;4.50;99.90;;;-146.41;100.00;57768.22;4887765;29;20075;-73
2022/04/21 03:37:58;;;;;;;6.18;4.50;;;4.30;99.90;;;-146.41;100.00;57768.22;4904573;29;20140;-72
2022/04/21 03:40:25;;;;;;;7.00;4.80;;;4.40;99.90;;;-146.41;100.00;57768.22;4905487;29;20139;-72
2022/04/21 03:42:52;;;;;;;14.30;4.88;;;4.50;99.90;;;-146.41;100.00;57768.22;4904592;29;20140;-74
2022/04/21 03:45:19;;;;;;;8.40;4.82;;;4.50;99.90;;;-146.41;100.00;57768.22;4904893;29;20495;-73
2022/04/21 03:47:46;;;;;;;9.77;5.80;;;3.20;99.90;;;-146.41;100.00;57768.22;4903027;29;20067;-73
2022/04/21 03:50:13;;;;;;;10.70;5.60;;;4.50;99.90;;;-146.41;100.00;57768.22;4904335;29;20179;-72
2022/04/21 03:52:40;;;;;;;9.02;5.22;;;4.50;99.90;;;-146.41;100.00;57768.22;4907438;29;20058;-72
2022/04/21 03:55:07;;;;;;;6.38;4.57;;;4.40;99.90;;;-146.41;100.00;57768.22;4903639;29;20135;-73
2022/04/21 03:57:35;;;;;;;6.75;4.68;;;4.50;99.90;;;-146.41;100.00;57768.22;4903100;29;20044;-73
2022/04/21 04:00:03;;;;;;;7.32;5.15;;;4.40;99.90;;;-146.41;100.00;57768.22;4896276;29;20054;-73
2022/04/21 04:02:30;;;;;;;9.38;5.55;;;4.50;99.90;;;-146.41;100.00;57768.22;4906660;29;20131;-73
2022/04/21 04:05:00;;;;;;;8.90;5.75;;;4.50;99.90;;;-146.41;100.00;57768.22;4911140;29;20607;-73
2022/04/21 04:12:58;;;;;;;5.88;4.65;;;4.60;99.90;;;-146.41;100.00;57768.22;4909315;29;20104;-73
2022/04/21 04:15:25;;;;;;;8.10;4.63;;;4.50;99.90;;;-146.41;100.00;57768.22;4902321;29;20082;-73
2022/04/21 04:17:52;;;;;;;6.95;5.10;;;4.40;99.90;;;-146.41;100.00;57768.22;4903416;29;20139;-74
2022/04/21 04:20:19;;;;;;;8.95;5.40;;;4.50;99.90;;;-146.41;100.00;57768.22;4902776;29;20170;-73
2022/04/21 04:22:46;;;;;;;8.35;5.35;;;4.60;99.90;;;-146.41;100.00;57768.22;4901052;29;20044;-73
2022/04/21 04:25:14;;;;;;;8.13;5.80;;;4.50;99.90;;;-146.41;100.00;57768.22;4906730;29;20136;-73
2022/04/21 04:27:42;;;;;;;9.93;5.85;;;4.50;99.90;;;-146.41;100.00;57768.22;4889434;29;20135;-73
2022/04/21 04:30:10;;;;;;;9.38;5.88;;;4.50;99.90;;;-146.41;100.00;57768.22;4908897;29;20527;-73
2022/04/21 04:32:37;;;;;;;8.30;5.22;;;4.50;99.90;;;-146.41;100.00;57768.22;4906233;29;20051;-73
2022/04/21 04:35:05;;;;;;;8.27;5.32;;;4.50;99.90;;;-146.41;100.00;57768.22;4911997;29;20087;-73
2022/04/21 04:37:32;;;;;;;7.20;4.82;;;4.50;99.90;;;-146.41;100.00;57768.22;4909668;29;20095;-73
2022/04/21 04:39:59;;;;;;;7.95;5.28;;;4.60;99.90;;;-146.41;100.00;57768.22;4906666;29;20081;-73
2022/04/21 04:42:28;;;;;;;7.25;5.68;;;4.60;99.90;;;-146.41;100.00;57768.22;4907624;29;20067;-74
2022/04/21 04:47:42;;;;;;;7.10;5.70;;;4.70;99.90;;;-146.41;100.00;57768.22;4907616;29;20139;-73
2022/04/21 04:50:10;;;;;;;7.80;5.47;;;4.80;99.90;;;-146.41;100.00;57768.22;4914603;29;20122;-74
2022/04/21 04:52:37;;;;;;;9.23;5.93;;;4.90;99.90;;;-146.41;100.00;57768.22;4908536;29;20071;-73
2022/04/21 04:55:09;;;;;;;9.57;5.47;;;4.90;99.90;;;-146.41;100.00;57768.22;4908484;29;20134;-74
2022/04/21 04:57:36;;;;;;;8.57;6.13;;;4.90;99.90;;;-146.41;100.00;57768.22;4896474;29;20084;-73
2022/04/21 05:00:07;;;;;;;10.07;5.82;;;4.90;99.90;;;-146.41;100.00;57768.22;4910814;29;20080;-73
2022/04/21 05:02:35;;;;;;;7.75;6.10;;;5.00;99.90;;;-146.41;100.00;57768.22;4891204;29;20539;-73
2022/04/21 05:05:05;;;;;;;11.27;5.95;;;5.10;99.90;;;-146.41;100.00;57768.22;4909710;29;20429;-73
2022/04/21 05:07:32;;;;;;;8.75;6.65;;;5.20;99.90;;;-146.41;100.00;57768.22;4907705;29;20056;-73
2022/04/21 05:09:59;;;;;;;8.98;5.82;;;5.40;99.90;;;-146.41;100.00;57768.22;4910505;29;20139;-74
2022/04/21 05:12:26;;;;;;;9.02;5.75;;;5.50;99.90;;;-146.41;100.00;57768.22;4910039;29;20072;-73
2022/04/21 05:14:54;;;;;;;7.57;5.68;;;5.60;99.90;;;-146.41;100.00;57768.22;4912983;29;20083;-73
2022/04/21 05:17:21;;;;;;;6.78;5.80;;;5.70;99.90;;;-146.41;100.00;57768.22;4911562;29;20104;-73
2022/04/21 05:20:09;;;;;;;7.07;5.47;;;5.70;99.90;;;-146.41;100.00;57768.22;4907520;29;20059;-73
2022/04/21 05:22:39;;;;;;;8.23;5.93;;;5.80;99.90;;;-146.41;100.00;57768.22;4908636;29;20084;-73
2022/04/21 05:25:11;;;;;;;8.02;6.35;;;5.90;99.90;;;-146.41;100.00;57768.22;4892902;29;20052;-74
2022/04/21 05:27:38;;;;;;;7.97;5.50;;;6.00;99.90;;;-146.41;100.00;57768.22;4910441;29;20083;-74
2022/04/21 05:32:57;;;;;;;7.85;5.68;;;6.20;99.90;;;-146.41;100.00;57768.22;4909188;29;20127;-74
2022/04/21 05:35:24;;;;;;;8.40;5.97;;;6.30;99.90;;;-146.41;100.00;57768.22;4895811;29;20077;-72
2022/04/21 05:37:51;;;;;;;7.47;6.10;;;6.30;99.90;;;-146.41;100.00;57768.22;4891250;29;20112;-74
2022/04/21 05:40:19;;;;;;;8.45;5.70;;;6.40;99.90;;;-146.41;100.00;57768.22;4906757;29;20470;-73
2022/04/21 05:42:49;;;;;;;7.60;5.97;;;6.40;99.90;;;-146.41;100.00;57768.22;4907447;29;20048;-73
2022/04/21 05:45:17;;;;;;;7.45;5.82;;;6.40;99.90;;;-146.41;100.00;57768.22;4900579;29;20609;-73
2022/04/21 05:47:47;;;;;;;10.02;6.03;;;6.50;99.90;;;-146.41;100.00;57768.22;4907765;29;20056;-73
2022/04/21 05:50:15;;;;;;;9.52;6.03;;;6.60;99.90;;;-146.41;100.00;57768.22;4906503;29;20048;-73
2022/04/21 05:52:45;;;;;;;7.93;5.05;;;6.60;99.90;;;-146.41;100.00;57768.22;4909666;29;20080;-73
2022/04/21 05:55:15;;;;;;;9.13;6.47;;;6.80;99.90;;;-146.41;100.00;57768.22;4904180;29;20127;-73
2022/04/21 05:57:43;;;;;;;6.15;5.40;;;6.90;99.90;;;-146.41;100.00;57768.22;4906252;29;20119;-73
2022/04/21 06:00:11;;;;;;;7.32;5.78;;;7.00;99.90;;;-146.41;100.00;57768.22;4908174;29;20055;-74
2022/04/21 06:02:38;;;;;;;9.75;6.70;;;7.00;99.90;;;-146.41;100.00;57768.22;4907208;29;20484;-73
2022/04/21 06:05:06;;;;;;;6.88;5.28;;;7.10;99.90;;;-146.41;100.00;57768.22;4907164;29;20056;-73
2022/04/21 06:07:33;;;;;;;8.57;5.88;;;7.30;99.90;;;-146.41;100.00;57768.22;4900229;29;20076;-73
2022/04/21 06:10:00;;;;;;;7.70;5.68;;;7.40;99.90;;;-146.41;100.00;57768.22;4908269;29;20111;-73
2022/04/21 06:12:27;;;;;;;7.90;5.88;;;7.40;99.90;;;-146.41;100.00;57768.22;4910011;29;20071;-73
2022/04/21 06:14:54;;;;;;;9.70;5.57;;;7.50;99.90;;;-146.41;100.00;57768.22;4912629;29;20095;-73
2022/04/21 06:17:22;;;;;;;10.25;5.57;;;7.50;99.90;;;-146.41;100.00;57768.22;4910061;29;20072;-74
2022/04/21 06:19:49;;;;;;;7.88;4.70;;;7.50;99.90;;;-146.41;100.00;57768.22;4890753;29;20490;-73
2022/04/21 06:22:16;;;;;;;7.85;5.40;;;7.60;99.90;;;-146.41;100.00;57768.22;4906497;29;20135;-73
2022/04/21 06:24:43;;;;;;;7.90;5.50;;;7.70;99.90;;;-146.41;100.00;57768.22;4903199;29;20048;-74
2022/04/21 06:27:10;;;;;;;10.40;5.47;;;7.80;99.90;;;-146.41;100.00;57768.22;4896801;29;20143;-73
2022/04/21 06:29:37;;;;;;;8.93;5.07;;;7.90;99.90;;;-146.41;100.00;57768.22;4909389;29;20131;-73
2022/04/21 06:32:05;;;;;;;9.77;5.60;;;7.90;99.90;;;-146.41;100.00;57768.22;4907233;29;20051;-74
2022/04/21 06:34:32;;;;;;;8.70;5.82;;;8.00;99.90;;;-146.41;100.00;57768.22;4903476;29;20051;-73
2022/04/21 06:37:03;;;;;;;8.18;4.80;;;8.00;99.90;;;-146.41;100.00;57768.22;4913781;29;20052;-73
2022/04/21 06:39:30;;;;;;;11.00;5.85;;;8.10;99.90;;;-146.41;100.00;57768.22;4907195;29;20543;-73
2022/04/21 06:41:57;;;;;;;10.15;5.57;;;8.20;99.90;;;-146.41;100.00;57768.22;4902672;29;20110;-73
2022/04/21 06:49:56;;;;;;;9.18;5.60;;;8.50;99.90;;;-146.41;100.00;57768.22;4901402;29;20465;-72
2022/04/21 06:52:23;;;;;;;8.20;5.78;;;8.60;99.90;;;-146.41;100.00;57768.22;4903093;29;20140;-72
2022/04/21 06:54:50;;;;;;;10.15;5.00;;;8.70;99.90;;;-146.41;100.00;57768.22;4900751;29;20151;-74
2022/04/21 06:57:18;;;;;;;13.75;5.85;;;8.90;99.90;;;-146.41;100.00;57768.22;4903161;29;20076;-72
2022/04/21 06:59:45;;;;;;;10.60;6.00;;;9.00;99.90;;;-146.41;100.00;57768.22;4904184;29;20144;-73
2022/04/21 07:02:12;;;;;;;11.23;5.68;;;9.10;99.90;;;-146.41;100.00;57768.22;4884859;29;66385;-72
2022/04/21 07:04:39;;;;;;;13.25;6.13;;;9.10;99.90;;;-146.41;100.00;57768.22;4882102;29;20056;-72
2022/04/21 07:07:07;;;;;;;9.93;5.70;;;9.10;99.90;;;-146.41;100.00;57768.22;4880767;29;20175;-72
2022/04/21 07:09:34;;;;;;;7.95;5.55;;;9.20;99.90;;;-146.41;100.00;57768.22;4886873;29;20095;-72
2022/04/21 07:12:02;;;;;;;13.68;5.25;;;9.20;99.90;;;-146.41;100.00;57768.22;4883071;29;20511;-72
2022/04/21 07:14:29;;;;;;;8.85;5.47;;;9.40;99.90;;;-146.41;100.00;57768.22;4883267;29;20583;-72
2022/04/21 07:16:58;;;;;;;7.95;5.20;;;9.50;99.90;;;-146.41;100.00;57768.22;4884079;29;20132;-74
2022/04/21 07:19:25;;;;;;;8.73;5.07;;;9.80;99.90;;;-146.41;100.00;57768.22;4884537;29;20466;-72
2022/04/21 07:21:52;;;;;;;9.27;5.32;;;9.80;99.90;;;-146.41;100.00;57768.22;4885195;29;20575;-72
2022/04/21 07:24:19;;;;;;;6.55;4.90;;;9.90;99.90;;;-146.41;100.00;57768.22;4886067;29;20535;-72
2022/04/21 07:26:46;;;;;;;8.05;4.75;;;9.80;99.90;;;-146.41;100.00;57768.22;4885706;29;21725;-73
2022/04/21 07:29:13;;;;;;;9.15;4.82;;;9.80;99.90;;;-146.41;100.00;57768.22;4871860;29;20088;-73
2022/04/21 07:31:42;;;;;;;10.93;5.10;;;9.70;99.90;;;-146.41;100.00;57768.22;4881242;29;20099;-73
2022/04/21 07:34:09;;;;;;;8.57;5.15;;;9.70;99.90;;;-146.41;100.00;57768.22;4884148;29;20395;-73
2022/04/21 07:36:37;;;;;;;10.77;5.03;;;9.80;99.90;;;-146.41;100.00;57768.22;4879264;29;20053;-73
2022/04/21 07:39:05;;;;;;;7.20;4.90;;;9.90;99.90;;;-146.41;100.00;57768.22;4880467;29;20115;-73
2022/04/21 07:41:32;;;;;;;10.95;5.60;;;10.00;99.90;;;-146.41;100.00;57768.22;4872427;29;20131;-73
2022/04/21 07:43:59;;;;;;;8.27;5.15;;;10.00;99.90;;;-146.41;100.00;57768.22;4884648;29;20064;-73
2022/04/21 07:46:26;;;;;;;8.00;4.68;;;10.10;99.90;;;-146.41;100.00;57768.22;4881995;29;20053;-73
2022/04/21 07:51:38;;;;;;;8.40;4.47;;;10.30;99.90;;;-146.41;100.00;57768.22;4869101;29;20084;-73
2022/04/21 07:54:06;;;;;;;6.22;4.13;;;10.40;99.90;;;-146.41;100.00;57768.22;4887554;29;20147;-73
2022/04/21 07:56:32;;;;;;;6.07;3.40;;;10.60;99.90;;;-146.41;100.00;57768.22;4883383;29;20132;-73
2022/04/21 07:59:00;;;;;;;10.32;3.78;;;10.70;99.90;;;-146.41;100.00;57768.22;4881966;29;20128;-73
2022/04/21 08:01:26;;;;;;;5.75;3.70;;;10.80;99.90;;;-146.41;100.00;57768.22;4886486;29;20120;-73
2022/04/21 08:03:54;;;;;;;7.47;3.55;;;;;;;-146.41;100.00;57768.22;4879685;29;20060;-73
2022/04/21 08:06:21;;;;;;;6.60;3.42;;;11.20;99.90;;;-146.41;100.00;57768.22;4887098;29;20056;-73
2022/04/21 08:08:48;;;;;;;6.57;3.45;;;11.30;99.90;;;-146.41;100.00;57768.22;4869596;29;20067;-73
2022/04/21 08:11:16;;;;;;;5.05;3.13;;;11.40;99.90;;;-146.41;100.00;57768.22;4887270;29;20132;-74
2022/04/21 08:13:43;;;;;;;6.35;3.28;;;11.40;99.90;;;-146.41;100.00;57768.22;4879310;29;20060;-73
2022/04/21 08:16:09;;;;;;;5.05;2.88;;;11.50;99.90;;;-146.41;100.00;57768.22;4886753;29;20056;-73
2022/04/21 08:18:36;;;;;;;8.52;3.05;;;11.50;99.90;;;-146.41;100.00;57768.22;4887148;29;20092;-74
2022/04/21 08:21:03;;;;;;;5.88;2.70;;;11.90;99.90;;;-146.41;100.00;57768.22;4884854;29;20174;-72
2022/04/21 08:23:50;;;;;;;5.35;3.35;;;12.00;99.90;;;-146.41;100.00;57768.22;4888201;29;20167;-73
2022/04/21 08:34:47;;;;;;;3.13;2.05;;;12.80;99.90;;;-146.41;100.00;57768.22;4875668;29;20048;-72
2022/04/21 08:37:14;;;;;;;4.22;2.25;;;13.30;99.90;;;-146.41;100.00;57768.22;4892060;29;20177;-72
2022/04/21 08:39:42;;;;;;;5.75;2.35;;;13.60;99.90;;;-146.41;100.00;57768.22;4888325;29;20139;-72
2022/04/21 08:42:10;;;;;;;5.10;2.63;;;13.60;99.90;;;-146.41;100.00;57768.22;4887998;29;20096;-71
2022/04/21 08:44:41;;;;;;;5.40;2.38;;;13.80;99.90;;;-146.41;100.00;57768.22;4876388;29;20123;-71
2022/04/21 08:47:11;;;;;;;5.05;3.30;;;14.00;99.90;;;-146.41;100.00;57768.22;4878047;29;20084;-71
2022/04/21 08:49:40;;;;;;;3.78;2.53;;;14.40;99.90;;;-146.41;100.00;57768.22;4861299;29;20056;-72
2022/04/21 08:52:08;;;;;;;3.97;2.38;;;14.30;99.90;;;-146.41;100.00;57768.22;4885222;29;20071;-71
2022/04/21 08:54:36;;;;;;;5.13;1.98;;;14.40;99.90;;;-146.41;100.00;57768.22;4889509;29;20096;-72
2022/04/21 08:57:05;;;;;;;5.03;2.10;;;15.00;99.90;;;-146.41;100.00;57768.22;4883821;29;20104;-72
2022/04/21 08:59:33;;;;;;;3.47;2.20;;;15.10;99.90;;;-146.41;100.00;57768.22;4891086;29;20098;-71
2022/04/21 09:02:00;;;;;;;4.43;2.42;;;14.70;99.90;;;-146.41;100.00;57768.22;4888303;29;21642;-71
2022/04/21 09:04:30;;;;;;;5.10;2.10;;;14.60;99.90;;;-146.41;100.00;57768.22;4888428;29;20064;-72
2022/04/21 09:07:44;;;;;;;3.80;2.25;;;14.90;99.90;;;-146.41;100.00;57768.22;4890034;29;20196;-71
2022/04/21 09:10:33;;;;;;;4.78;2.38;;;14.90;99.90;;;-146.41;100.00;57768.22;4839837;29;20554;-71
2022/04/21 09:13:02;;;;;;;10.45;2.78;;;15.00;99.90;;;-146.41;100.00;57768.22;4887649;29;20057;-72
2022/04/21 09:15:33;;;;;;;2.95;1.80;;;14.80;99.90;;;-146.41;100.00;57768.22;4889854;29;20096;-71
2022/04/21 09:18:07;;;;;;;5.32;2.10;;;15.40;99.90;;;-146.41;100.00;57768.22;4889664;29;20144;-72
2022/04/21 09:20:36;;;;;;;5.95;1.65;;;15.10;99.90;;;-146.41;100.00;57768.22;4888978;29;20480;-72
2022/04/21 09:23:11;;;;;;;3.70;1.77;;;15.10;99.90;;;-146.41;100.00;57768.22;4889529;29;20119;-72
2022/04/21 09:25:50;;;;;;;5.95;2.33;;;14.70;99.90;;;-146.41;100.00;57768.22;4870719;29;20171;-72
2022/04/21 09:28:26;;;;;;;10.82;2.15;;;14.80;99.90;;;-146.41;100.00;57768.22;4887444;29;20087;-72
2022/04/21 09:30:57;;;;;;;6.15;1.98;;;15.30;99.90;;;-146.41;100.00;57768.22;4878415;29;20150;-72
2022/04/21 09:33:29;;;;;;;3.78;2.20;;;15.50;99.90;;;-146.41;100.00;57768.22;4888722;29;20053;-72
2022/04/21 09:36:00;;;;;;;;;;;15.50;99.90;;;-146.41;100.00;57768.22;4871683;29;20059;-72
2022/04/21 09:38:28;;;;;;;4.57;2.75;;;15.30;99.90;;;-146.41;100.00;57768.22;4887478;29;19979;-72
2022/04/21 09:40:55;;;;;;;4.72;2.60;;;15.00;99.90;;;-146.41;100.00;57768.22;4887310;29;20053;-72
2022/04/21 09:43:28;;;;;;;4.25;2.45;;;15.00;99.90;;;-146.41;100.00;57768.22;4884052;29;20136;-72
2022/04/21 09:46:28;;;;;;;4.85;2.50;;;15.30;99.90;;;-146.41;100.00;57768.22;4887115;29;20111;-72
2022/04/21 09:48:55;;;;;;;4.32;2.58;;;15.50;99.90;;;-146.41;100.00;57768.22;4889287;29;20048;-73
2022/04/21 09:51:28;;;;;;;6.07;2.63;;;15.60;99.90;;;-146.41;100.00;57768.22;4888230;29;20120;-74
2022/04/21 09:54:02;;;;;;;5.63;2.13;;;15.40;99.90;;;-146.41;100.00;57768.22;4886830;29;20696;-73
2022/04/21 09:56:33;;;;;;;3.85;1.95;;;15.10;99.90;;;-146.41;100.00;57768.22;4886844;29;20514;-73
2022/04/21 09:59:09;;;;;;;3.60;2.00;;;15.20;99.90;;;-146.41;100.00;57768.22;4890556;29;20083;-73
2022/04/21 10:01:39;;;;;;;5.22;2.30;;;15.30;99.90;;;-146.41;100.00;57768.22;4887720;29;20052;-73
2022/04/21 10:04:13;;;;;;;10.65;2.28;;;15.30;99.90;;;-146.41;100.00;57768.22;4887278;29;20113;-72
2022/04/21 10:06:42;;;;;;;5.20;2.30;;;15.50;99.90;;;-146.41;100.00;57768.22;4888101;29;20135;-72
2022/04/21 10:09:12;;;;;;;3.50;1.83;;;15.80;99.90;;;-146.41;100.00;57768.22;4886642;29;20158;-73
2022/04/21 10:11:44;;;;;;;6.50;2.40;;;16.30;92.00;;;-146.41;100.00;57768.22;4884151;29;20103;-72
2022/04/21 10:14:12;;;;;;;4.10;2.67;;;16.30;91.50;;;-146.41;100.00;57768.22;4878566;29;20060;-72
2022/04/21 10:16:45;;;;;;;5.60;2.50;;;15.90;91.80;;;-146.41;100.00;57768.22;4876078;29;20153;-72
2022/04/21 10:19:16;;;;;;;4.75;2.40;;;16.10;91.10;;;-146.41;100.00;57768.22;4887302;29;20525;-72
2022/04/21 10:21:52;;;;;;;3.85;1.88;;;16.50;90.70;;;-146.41;100.00;57768.22;4883098;29;20472;-73
2022/04/21 10:24:25;;;;;;;3.90;2.10;;;16.80;91.10;;;-146.41;100.00;57768.22;4877269;29;20132;-73
2022/04/21 10:26:53;;;;;;;6.03;2.15;;;16.80;90.20;;;-146.41;100.00;57768.22;4867403;29;20052;-73
2022/04/21 10:29:23;;;;;;;3.90;1.63;;;16.90;89.10;;;-146.41;100.00;57768.22;4883882;29;20139;-73
2022/04/21 10:31:59;;;;;;;6.80;2.17;;;16.80;86.30;;;-146.41;100.00;57768.22;4885657;29;20063;-72
2022/04/21 10:34:48;;;;;;;3.80;2.10;;;16.30;86.50;;;-146.41;100.00;57768.22;4870633;29;20048;-73
2022/04/21 10:37:16;;;;;;;4.68;1.80;;;16.80;87.70;;;-146.41;100.00;57768.22;4885990;29;20416;-71
2022/04/21 10:40:11;;;;;;;4.30;1.70;;;17.00;87.50;;;-146.41;100.00;57768.22;4884831;29;20052;-73
2022/04/21 10:42:55;;;;;;;6.43;1.58;;;17.30;86.10;;;-146.41;100.00;57768.22;4883880;29;20539;-71
2022/04/21 10:45:32;;;;;;;5.25;1.30;;;17.50;84.40;;;-146.41;100.00;57768.22;4882396;29;20094;-72
2022/04/21 10:48:12;;;;;;;7.75;2.22;;;17.40;83.00;;;-146.41;100.00;57768.22;4884885;29;20053;-73
2022/04/21 10:50:45;;;;;;;3.92;1.73;;;17.20;83.80;;;-146.41;100.00;57768.22;4874806;29;20068;-73
2022/04/21 10:59:08;;;;;;;4.88;2.50;;;17.40;83.80;;;-146.41;100.00;57768.22;4882256;29;20082;-72